Time;durP1;ratioP1;P1;durP2;ratioP2;P2;SDS_P1;SDS_P2;PMS_P1;PMS_P2;Temp;Humidity;BMP_temperature;BMP_pressure;BME280_temperature;BME280_humidity;BME280_pressure;Samples;Min_cycle;Max_cycle;Signal;HPM_P1;HPM_P2
2023/07/21 00:00:58;;;;;;;2.05;1.45;;;15.20;99.90;;;;;;5051836;28;20175;-49
2023/07/21 00:03:24;;;;;;;2.35;0.93;;;15.20;99.90;;;;;;5046005;28;20101;-49
2023/07/21 00:05:49;;;;;;;3.05;1.08;;;15.20;99.90;;;;;;5054527;28;20506;-49
2023/07/21 00:08:15;;;;;;;4.18;1.48;;;15.20;99.90;;;;;;5051638;28;20041;-50
2023/07/21 00:10:42;;;;;;;2.25;2.05;;;15.20;99.90;;;;;;5051776;28;20032;-51
2023/07/21 00:13:08;;;;;;;2.33;1.63;;;15.20;99.90;;;;;;5050114;28;20116;-50
2023/07/21 00:15:33;;;;;;;2.35;1.75;;;15.20;99.90;;;;;;5050124;28;20524;-47
2023/07/21 00:17:59;;;;;;;5.32;1.83;;;15.20;99.90;;;;;;5051384;28;20037;-48
2023/07/21 00:20:25;;;;;;;4.65;1.83;;;15.20;99.90;;;;;;5051335;28;20123;-48
2023/07/21 00:22:51;;;;;;;3.45;1.55;;;15.20;99.90;;;;;;5051192;28;20044;-50
2023/07/21 00:25:17;;;;;;;5.75;1.50;;;15.20;99.90;;;;;;5049883;28;20047;-47
2023/07/21 00:27:43;;;;;;;2.85;1.73;;;15.20;99.90;;;;;;5050624;28;20041;-47
2023/07/21 00:30:10;;;;;;;4.88;1.95;;;15.20;99.90;;;;;;5051356;28;20067;-49
2023/07/21 00:32:36;;;;;;;4.13;1.73;;;15.10;99.90;;;;;;5051262;28;20075;-48
2023/07/21 00:35:06;;;;;;;3.08;1.88;;;15.10;99.90;;;;;;5050904;28;20045;-48
2023/07/21 00:37:32;;;;;;;4.80;2.47;;;15.10;99.90;;;;;;5051424;28;20045;-50
2023/07/21 00:39:58;;;;;;;3.30;1.98;;;15.10;99.90;;;;;;5050488;28;20600;-50
2023/07/21 00:42:24;;;;;;;2.13;1.92;;;15.10;99.90;;;;;;5049900;28;20520;-50
2023/07/21 00:44:49;;;;;;;4.22;1.98;;;15.10;99.90;;;;;;5050355;28;20275;-50
2023/07/21 00:47:15;;;;;;;3.05;2.28;;;15.20;99.90;;;;;;5050871;28;20494;-50
2023/07/21 00:49:42;;;;;;;2.40;1.98;;;15.10;99.90;;;;;;5050451;28;20063;-51
2023/07/21 00:52:09;;;;;;;;;;;15.00;99.90;;;;;;5051289;28;20391;-50
2023/07/21 00:54:35;;;;;;;4.22;1.83;;;14.90;99.90;;;;;;5050108;28;19962;-49
2023/07/21 00:57:01;;;;;;;5.80;2.15;;;14.80;99.90;;;;;;5050268;28;20043;-48
2023/07/21 00:59:27;;;;;;;4.43;1.85;;;14.80;99.90;;;;;;5050414;28;20040;-50
2023/07/21 01:01:52;;;;;;;2.60;2.35;;;14.70;99.90;;;;;;5050164;28;20116;-50
2023/07/21 01:04:19;;;;;;;4.03;2.30;;;14.70;99.90;;;;;;5050428;28;20478;-50
2023/07/21 01:06:45;;;;;;;2.67;2.25;;;14.70;99.90;;;;;;5049841;28;20047;-49
2023/07/21 01:09:12;;;;;;;4.40;2.60;;;14.70;99.90;;;;;;5050331;28;20533;-48
2023/07/21 01:11:38;;;;;;;4.65;2.60;;;14.70;99.90;;;;;;5051802;28;20076;-50
2023/07/21 01:14:05;;;;;;;;;;;14.70;99.90;;;;;;5050340;28;20068;-50
2023/07/21 01:16:34;;;;;;;3.78;1.90;;;14.70;99.90;;;;;;5048542;28;19917;-48
2023/07/21 01:19:01;;;;;;;3.88;2.30;;;14.70;99.90;;;;;;5047620;28;20044;-49
2023/07/21 01:21:45;;;;;;;4.30;2.70;;;14.70;99.90;;;;;;5049944;28;20037;-51
2023/07/21 01:24:20;;;;;;;3.13;2.38;;;14.70;99.90;;;;;;5043527;28;20041;-50
2023/07/21 01:26:48;;;;;;;5.18;2.38;;;14.80;99.90;;;;;;5049869;28;20051;-50
2023/07/21 01:29:16;;;;;;;4.90;2.38;;;14.80;99.90;;;;;;5050387;28;20033;-49
2023/07/21 01:31:44;;;;;;;6.68;2.45;;;14.80;99.90;;;;;;5050005;28;20460;-49
2023/07/21 01:34:11;;;;;;;3.95;1.50;;;14.80;99.90;;;;;;5050055;28;20049;-49
2023/07/21 01:36:37;;;;;;;2.05;1.55;;;14.90;99.90;;;;;;5049246;28;20045;-50
2023/07/21 01:39:05;;;;;;;4.93;1.73;;;14.90;99.90;;;;;;5050147;28;20048;-48
2023/07/21 01:41:32;;;;;;;8.93;2.05;;;14.90;99.90;;;;;;5050162;28;20045;-50
2023/07/21 01:43:58;;;;;;;4.38;2.30;;;14.90;99.90;;;;;;5049946;28;20040;-47
2023/07/21 01:46:23;;;;;;;4.90;1.92;;;14.90;99.90;;;;;;5049699;28;20049;-47
2023/07/21 01:48:49;;;;;;;2.65;2.08;;;14.90;99.90;;;;;;5049570;28;20053;-50
2023/07/21 01:51:18;;;;;;;3.55;1.70;;;14.80;99.90;;;;;;5049513;28;20152;-50
2023/07/21 01:53:49;;;;;;;2.30;2.03;;;14.80;99.90;;;;;;5049825;28;20033;-50
2023/07/21 01:56:28;;;;;;;3.25;2.00;;;14.80;99.90;;;;;;5049939;28;20120;-50
2023/07/21 01:58:56;;;;;;;3.22;2.10;;;14.70;99.90;;;;;;5048693;28;20123;-48
2023/07/21 02:01:23;;;;;;;3.22;2.05;;;14.80;99.90;;;;;;5049619;28;20036;-48
2023/07/21 02:03:49;;;;;;;4.95;2.15;;;14.70;99.90;;;;;;5049517;28;20074;-49
2023/07/21 02:06:16;;;;;;;6.43;2.25;;;14.70;99.90;;;;;;5049360;28;20155;-50
2023/07/21 02:08:42;;;;;;;4.50;2.65;;;14.70;99.90;;;;;;5048905;28;20040;-51
2023/07/21 02:11:08;;;;;;;4.63;1.95;;;14.70;99.90;;;;;;5048637;28;20040;-48
2023/07/21 02:13:34;;;;;;;4.90;2.33;;;14.70;99.90;;;;;;5050694;28;20453;-50
2023/07/21 02:15:59;;;;;;;7.25;1.88;;;14.70;99.90;;;;;;5058522;28;20033;-49
2023/07/21 02:18:25;;;;;;;3.75;2.30;;;14.70;99.90;;;;;;5053637;28;20045;-49
2023/07/21 02:20:51;;;;;;;2.85;2.63;;;14.70;99.90;;;;;;5052686;28;20040;-51
2023/07/21 02:23:16;;;;;;;3.30;2.88;;;14.60;99.90;;;;;;5052278;28;20044;-48
2023/07/21 02:25:44;;;;;;;3.03;2.40;;;14.60;99.90;;;;;;5053479;28;20496;-49
2023/07/21 02:28:10;;;;;;;3.22;2.75;;;14.60;99.90;;;;;;5053713;28;20075;-49
2023/07/21 02:30:35;;;;;;;4.82;3.35;;;14.60;99.90;;;;;;5052974;28;20072;-50
2023/07/21 02:33:01;;;;;;;2.88;2.47;;;14.50;99.90;;;;;;5053318;28;20040;-49
2023/07/21 02:35:27;;;;;;;6.63;3.00;;;14.50;99.90;;;;;;5053161;28;20040;-48
2023/07/21 02:37:53;;;;;;;;;;;14.60;99.90;;;;;;5053678;28;20045;-51
2023/07/21 02:40:18;;;;;;;3.90;2.72;;;14.50;99.90;;;;;;5059396;28;20012;-50
2023/07/21 02:42:44;;;;;;;5.32;2.35;;;14.50;99.90;;;;;;5054925;28;20037;-48
2023/07/21 02:45:10;;;;;;;4.40;2.78;;;14.50;99.90;;;;;;5052561;28;20485;-47
2023/07/21 02:47:35;;;;;;;4.38;2.65;;;14.40;99.90;;;;;;5053362;28;20233;-50
2023/07/21 02:50:01;;;;;;;2.85;2.65;;;14.40;99.90;;;;;;5053223;28;20501;-49
2023/07/21 02:52:27;;;;;;;2.28;1.67;;;14.50;99.90;;;;;;5053261;28;20040;-48
2023/07/21 02:54:53;;;;;;;3.58;2.00;;;14.50;99.90;;;;;;5053339;28;20489;-48
2023/07/21 02:57:19;;;;;;;3.80;2.60;;;14.50;99.90;;;;;;5053046;28;20040;-50
2023/07/21 02:59:46;;;;;;;4.18;3.17;;;14.40;99.90;;;;;;5052447;28;20520;-49
2023/07/21 03:02:12;;;;;;;3.15;2.60;;;14.50;99.90;;;;;;5053027;28;20049;-50
2023/07/21 03:04:42;;;;;;;7.18;3.53;;;14.50;99.90;;;;;;5052601;28;20052;-50
2023/07/21 03:07:08;;;;;;;4.28;3.63;;;14.50;99.90;;;;;;5067999;28;20201;-50
2023/07/21 03:09:35;;;;;;;7.03;3.92;;;14.60;99.90;;;;;;5052657;28;20033;-50
2023/07/21 03:12:01;;;;;;;3.90;2.85;;;14.50;99.90;;;;;;5052211;28;20033;-48
2023/07/21 03:14:26;;;;;;;4.88;3.80;;;14.50;99.90;;;;;;5051817;28;20624;-49
2023/07/21 03:16:52;;;;;;;7.05;2.72;;;14.50;99.90;;;;;;5051711;28;20099;-49
2023/07/21 03:19:18;;;;;;;4.80;3.03;;;14.50;99.90;;;;;;5059192;28;20040;-51
2023/07/21 03:21:43;;;;;;;3.42;3.13;;;14.40;99.90;;;;;;5052205;28;20036;-50
2023/07/21 03:24:09;;;;;;;3.88;2.15;;;14.40;99.90;;;;;;5050872;28;20077;-50
2023/07/21 03:26:34;;;;;;;9.00;3.60;;;14.40;99.90;;;;;;5050667;28;20032;-50
2023/07/21 03:29:00;;;;;;;4.10;3.70;;;14.40;99.90;;;;;;5051141;28;20047;-52
2023/07/21 03:31:26;;;;;;;9.45;4.18;;;14.40;99.90;;;;;;5052345;28;20037;-51
2023/07/21 03:33:51;;;;;;;8.40;3.90;;;14.40;99.90;;;;;;5052297;28;20032;-50
2023/07/21 03:36:20;;;;;;;4.53;3.55;;;14.40;99.90;;;;;;5051908;28;20379;-48
2023/07/21 03:38:46;;;;;;;5.25;3.55;;;14.40;99.90;;;;;;5067641;28;20099;-51
2023/07/21 03:41:12;;;;;;;;;;;14.40;99.90;;;;;;5052622;28;20074;-52
2023/07/21 03:43:37;;;;;;;5.25;3.90;;;14.40;99.90;;;;;;5051248;28;20389;-49
2023/07/21 03:46:05;;;;;;;4.82;4.18;;;14.40;99.90;;;;;;5052041;28;20119;-50
2023/07/21 03:48:31;;;;;;;9.63;3.92;;;14.40;99.90;;;;;;5052257;28;20119;-51
2023/07/21 03:50:57;;;;;;;;;;;14.40;99.90;;;;;;5052386;28;20111;-50
2023/07/21 03:53:24;;;;;;;4.78;3.30;;;14.40;99.90;;;;;;5051775;28;19925;-50
2023/07/21 03:55:50;;;;;;;4.53;4.13;;;14.40;99.90;;;;;;5051382;28;20455;-49
2023/07/21 03:58:16;;;;;;;5.18;4.15;;;14.40;99.90;;;;;;5051249;28;20116;-50
2023/07/21 04:00:42;;;;;;;7.05;3.60;;;14.30;99.90;;;;;;5051746;28;20114;-50
2023/07/21 04:03:09;;;;;;;4.13;3.70;;;14.30;99.90;;;;;;5051559;28;20520;-48
2023/07/21 04:05:35;;;;;;;6.30;4.35;;;14.30;99.90;;;;;;5050103;28;20076;-50
2023/07/21 04:08:00;;;;;;;4.68;4.25;;;14.30;99.90;;;;;;5051477;28;20118;-50
2023/07/21 04:10:26;;;;;;;5.50;3.30;;;14.30;99.90;;;;;;5051612;28;20041;-47
2023/07/21 04:12:52;;;;;;;4.88;3.70;;;14.30;99.90;;;;;;5050914;28;20047;-51
2023/07/21 04:15:17;;;;;;;5.18;4.28;;;14.20;99.90;;;;;;5051396;28;20036;-49
2023/07/21 04:17:43;;;;;;;4.32;3.95;;;14.20;99.90;;;;;;5051322;28;20037;-48
2023/07/21 04:20:10;;;;;;;4.47;3.80;;;14.20;99.90;;;;;;5051207;28;20041;-48
2023/07/21 04:22:36;;;;;;;4.65;4.25;;;14.30;99.90;;;;;;5055863;28;20331;-49
2023/07/21 04:25:02;;;;;;;6.32;3.78;;;14.30;99.90;;;;;;5050995;28;20051;-51
2023/07/21 04:27:28;;;;;;;3.97;3.67;;;14.20;99.90;;;;;;5050789;28;20045;-50
2023/07/21 04:29:55;;;;;;;3.78;3.42;;;14.30;99.90;;;;;;5050406;28;20116;-52
2023/07/21 04:32:20;;;;;;;6.07;4.32;;;14.30;99.90;;;;;;5051277;28;20079;-49
2023/07/21 04:34:46;;;;;;;4.70;4.30;;;14.30;99.90;;;;;;5049583;28;20065;-50
2023/07/21 04:37:13;;;;;;;4.18;3.67;;;14.30;99.90;;;;;;5050618;28;20562;-48
2023/07/21 04:39:42;;;;;;;5.53;4.55;;;14.30;99.90;;;;;;5066568;28;20524;-49
2023/07/21 04:42:09;;;;;;;4.90;4.35;;;14.30;99.90;;;;;;5050941;28;20523;-50
2023/07/21 04:44:35;;;;;;;4.50;4.10;;;14.30;99.90;;;;;;5050880;28;20052;-50
2023/07/21 04:47:04;;;;;;;6.65;4.10;;;14.40;99.90;;;;;;5050954;28;20045;-49
2023/07/21 04:49:33;;;;;;;9.15;4.57;;;14.40;99.90;;;;;;5050798;28;20033;-49
2023/07/21 04:52:00;;;;;;;4.60;4.20;;;14.40;99.90;;;;;;5050579;28;20499;-49
2023/07/21 04:54:26;;;;;;;5.93;5.18;;;14.50;99.90;;;;;;5050168;28;20045;-49
2023/07/21 04:56:52;;;;;;;5.85;5.25;;;14.50;99.90;;;;;;5050600;28;20037;-50
2023/07/21 04:59:21;;;;;;;4.45;3.70;;;14.50;99.90;;;;;;5049672;28;20040;-50
2023/07/21 05:01:47;;;;;;;4.78;4.18;;;14.60;99.90;;;;;;5050647;28;20041;-49
2023/07/21 05:04:16;;;;;;;6.30;4.05;;;14.60;99.90;;;;;;5050594;28;20119;-49
2023/07/21 05:06:43;;;;;;;5.07;4.53;;;14.60;99.90;;;;;;5050191;28;20112;-50
2023/07/21 05:09:10;;;;;;;6.20;4.22;;;14.70;99.90;;;;;;5049952;28;20048;-52
2023/07/21 05:11:35;;;;;;;4.72;3.88;;;14.70;99.90;;;;;;5050543;28;20098;-51
2023/07/21 05:14:03;;;;;;;6.95;4.55;;;14.70;99.90;;;;;;5050443;28;20116;-50
2023/07/21 05:16:29;;;;;;;5.97;3.75;;;14.70;99.90;;;;;;5050171;28;20036;-49
2023/07/21 05:18:55;;;;;;;5.82;3.75;;;14.70;99.90;;;;;;5050002;28;20128;-52
2023/07/21 05:21:21;;;;;;;5.25;3.85;;;14.80;99.90;;;;;;5050173;28;20120;-49
2023/07/21 05:23:46;;;;;;;5.60;3.75;;;14.70;99.90;;;;;;5050300;28;20475;-48
2023/07/21 05:26:12;;;;;;;8.60;4.60;;;14.80;99.90;;;;;;5056916;28;20025;-48
2023/07/21 05:28:38;;;;;;;4.40;3.42;;;14.90;99.90;;;;;;5050184;28;20033;-49
2023/07/21 05:31:03;;;;;;;4.22;3.45;;;14.90;99.90;;;;;;5050177;28;20111;-49
2023/07/21 05:33:29;;;;;;;4.38;3.13;;;14.90;99.90;;;;;;5048734;28;20524;-49
2023/07/21 05:36:07;;;;;;;4.65;3.38;;;14.90;99.90;;;;;;5047698;28;20055;-50
2023/07/21 05:38:33;;;;;;;7.35;3.50;;;14.90;99.90;;;;;;5059619;28;20041;-50
2023/07/21 05:40:59;;;;;;;5.30;4.00;;;14.90;99.90;;;;;;5051267;28;20040;-52
2023/07/21 05:43:24;;;;;;;6.28;4.20;;;14.90;99.90;;;;;;5050536;28;20043;-50
2023/07/21 05:45:50;;;;;;;4.82;3.80;;;15.00;99.90;;;;;;5050084;28;20041;-50
2023/07/21 05:48:16;;;;;;;6.53;4.03;;;15.10;99.90;;;;;;5049035;28;20570;-50
2023/07/21 05:50:41;;;;;;;4.32;3.85;;;15.20;99.90;;;;;;5048610;28;20041;-49
2023/07/21 05:53:07;;;;;;;3.97;3.13;;;15.20;99.90;;;;;;5049858;28;20119;-50
2023/07/21 05:55:32;;;;;;;6.55;3.95;;;15.30;99.90;;;;;;5047963;28;20037;-50
2023/07/21 05:57:58;;;;;;;5.10;4.00;;;15.40;99.90;;;;;;5057099;28;20082;-51
2023/07/21 06:00:25;;;;;;;5.53;3.42;;;15.40;99.90;;;;;;5049638;28;20558;-50
2023/07/21 06:02:51;;;;;;;4.78;3.97;;;15.50;99.90;;;;;;5048854;28;20076;-48
2023/07/21 06:05:17;;;;;;;3.97;3.53;;;15.50;99.90;;;;;;5049155;28;20541;-50
2023/07/21 06:07:44;;;;;;;6.97;3.38;;;15.60;99.90;;;;;;5046498;28;20116;-50
2023/07/21 06:10:10;;;;;;;3.75;3.40;;;15.70;99.90;;;;;;5049695;28;20058;-49
2023/07/21 06:12:36;;;;;;;;;;;15.70;99.90;;;;;;5049971;28;20037;-48
2023/07/21 06:15:01;;;;;;;6.45;3.05;;;15.80;99.90;;;;;;5049009;28;19920;-49
2023/07/21 06:17:28;;;;;;;4.38;3.13;;;15.90;99.90;;;;;;5042858;28;20037;-49
2023/07/21 06:19:54;;;;;;;7.55;4.28;;;16.00;99.90;;;;;;5037330;28;20064;-49
2023/07/21 06:22:19;;;;;;;4.95;3.80;;;16.10;99.90;;;;;;5046611;28;20049;-49
2023/07/21 06:24:45;;;;;;;6.55;4.00;;;16.20;99.90;;;;;;5049013;28;20079;-50
2023/07/21 06:27:14;;;;;;;23.58;3.67;;;16.30;99.90;;;;;;5042567;28;20033;-51
2023/07/21 06:29:40;;;;;;;3.78;3.40;;;16.30;99.90;;;;;;5036347;28;20045;-51
2023/07/21 06:32:06;;;;;;;4.13;3.30;;;16.40;99.90;;;;;;5034516;28;20461;-50
2023/07/21 06:34:32;;;;;;;5.65;2.97;;;16.50;99.90;;;;;;5027396;28;20438;-49
2023/07/21 06:36:58;;;;;;;6.03;3.75;;;16.60;99.90;;;;;;5042899;28;20081;-49
2023/07/21 06:39:23;;;;;;;7.78;2.70;;;16.60;99.90;;;;;;5034037;28;20081;-50
2023/07/21 06:41:49;;;;;;;4.60;2.67;;;16.80;99.90;;;;;;5040570;28;20468;-50
2023/07/21 06:44:15;;;;;;;8.00;2.65;;;16.90;99.90;;;;;;5037937;28;20113;-49
2023/07/21 06:46:47;;;;;;;4.43;2.88;;;17.00;99.90;;;;;;5033671;28;20060;-50
2023/07/21 06:49:14;;;;;;;3.13;2.83;;;17.10;99.90;;;;;;5041996;28;20044;-51
2023/07/21 06:51:40;;;;;;;5.65;2.88;;;17.20;99.90;;;;;;5047157;28;20166;-50
2023/07/21 06:54:08;;;;;;;4.35;2.90;;;17.30;99.90;;;;;;5044485;28;20413;-50
2023/07/21 06:56:34;;;;;;;4.45;2.70;;;17.40;99.90;;;;;;5045344;28;20041;-50
2023/07/21 06:58:59;;;;;;;6.15;2.90;;;17.40;99.90;;;;;;5049763;28;20506;-50
2023/07/21 07:01:25;;;;;;;5.25;2.20;;;17.50;99.90;;;;;;5052724;28;20045;-50
2023/07/21 07:03:51;;;;;;;3.58;2.20;;;17.60;99.90;;;;;;5052761;28;20065;-50
2023/07/21 07:06:17;;;;;;;2.95;2.47;;;17.70;99.90;;;;;;5052547;28;20033;-49
2023/07/21 07:08:43;;;;;;;1.70;1.60;;;17.80;99.90;;;;;;5052493;28;20045;-51
2023/07/21 07:11:09;;;;;;;5.35;2.25;;;17.90;99.90;;;;;;5052899;28;20549;-51
2023/07/21 07:13:34;;;;;;;;;;;17.90;99.90;;;;;;5052977;28;20041;-50
2023/07/21 07:16:00;;;;;;;5.75;2.40;;;18.00;99.90;;;;;;5052297;28;20447;-49
2023/07/21 07:18:26;;;;;;;4.45;2.15;;;18.00;99.90;;;;;;5052534;28;20411;-48
2023/07/21 07:20:53;;;;;;;6.45;1.70;;;18.00;99.90;;;;;;5047014;28;20037;-50
2023/07/21 07:23:19;;;;;;;4.05;1.50;;;18.00;99.90;;;;;;5051033;28;20308;-50
2023/07/21 07:25:50;;;;;;;3.60;1.83;;;18.10;99.90;;;;;;5051144;28;20045;-50
2023/07/21 07:28:17;;;;;;;3.95;1.67;;;18.20;99.90;;;;;;5052672;28;20513;-52
2023/07/21 07:30:44;;;;;;;3.10;1.50;;;18.30;99.90;;;;;;5051868;28;20094;-49
2023/07/21 07:33:10;;;;;;;2.13;1.05;;;18.40;99.90;;;;;;5052057;28;20033;-50
2023/07/21 07:35:35;;;;;;;2.67;1.42;;;18.40;99.90;;;;;;5051244;28;20040;-50
2023/07/21 07:38:01;;;;;;;3.53;1.98;;;18.60;99.90;;;;;;5051814;28;20124;-50
2023/07/21 07:40:27;;;;;;;5.07;2.03;;;18.60;99.90;;;;;;5046902;28;20299;-49
2023/07/21 07:42:52;;;;;;;3.25;1.48;;;18.80;99.90;;;;;;5042572;28;20037;-50
2023/07/21 07:45:18;;;;;;;2.50;1.08;;;18.90;99.90;;;;;;5042971;28;20069;-51
2023/07/21 07:47:44;;;;;;;1.90;1.13;;;19.00;99.90;;;;;;5057360;28;20125;-50
2023/07/21 07:50:11;;;;;;;4.88;1.30;;;19.00;99.90;;;;;;5047454;28;20115;-52
2023/07/21 07:52:39;;;;;;;1.83;0.90;;;19.00;99.90;;;;;;5042607;28;20071;-51
2023/07/21 07:55:06;;;;;;;2.92;0.90;;;19.00;99.90;;;;;;5039100;28;20064;-49
2023/07/21 07:57:31;;;;;;;1.27;0.20;;;19.00;99.90;;;;;;5038464;28;20037;-51
2023/07/21 07:59:57;;;;;;;1.65;0.32;;;19.10;99.90;;;;;;5040455;28;20041;-50
2023/07/21 08:02:22;;;;;;;;;;;19.10;99.90;;;;;;5047577;28;20037;-50
2023/07/21 08:04:48;;;;;;;0.90;0.63;;;19.20;99.90;;;;;;5038980;28;19983;-52
2023/07/21 08:07:14;;;;;;;;;;;19.20;99.90;;;;;;5039900;28;20465;-50
2023/07/21 08:09:40;;;;;;;6.68;0.82;;;19.30;99.90;;;;;;5039163;28;19952;-51
2023/07/21 08:12:05;;;;;;;;;;;19.30;99.90;;;;;;5040173;28;20099;-50
2023/07/21 08:14:31;;;;;;;4.47;0.70;;;19.40;99.90;;;;;;5041019;28;19964;-50
2023/07/21 08:17:00;;;;;;;;;;;19.50;99.90;;;;;;5035872;28;20043;-50
2023/07/21 08:19:25;;;;;;;3.63;0.82;;;19.50;99.90;;;;;;5038471;28;19967;-48
2023/07/21 08:21:51;;;;;;;1.75;0.63;;;19.60;99.90;;;;;;5042066;28;20076;-47
2023/07/21 08:24:16;;;;;;;;;;;19.70;99.90;;;;;;5041248;28;20068;-52
2023/07/21 08:26:42;;;;;;;1.45;0.63;;;19.70;99.90;;;;;;5039198;28;19916;-53
2023/07/21 08:29:09;;;;;;;;;;;19.80;99.90;;;;;;5045393;28;20514;-50
2023/07/21 08:31:35;;;;;;;1.67;0.60;;;19.80;99.90;;;;;;5038228;28;19921;-50
2023/07/21 08:34:00;;;;;;;2.22;0.45;;;19.90;99.90;;;;;;5041191;28;20520;-49
2023/07/21 08:36:26;;;;;;;2.95;0.70;;;20.00;99.90;;;;;;5041636;28;20080;-52
2023/07/21 08:38:52;;;;;;;;;;;20.00;99.90;;;;;;5038050;28;20175;-56
2023/07/21 08:41:20;;;;;;;2.35;0.50;;;20.10;99.70;;;;;;5038621;28;19916;-51
2023/07/21 08:43:48;;;;;;;1.20;0.75;;;20.00;99.80;;;;;;5036768;28;20440;-50
2023/07/21 08:46:15;;;;;;;1.67;0.38;;;20.00;99.60;;;;;;5039469;28;20048;-50
2023/07/21 08:48:41;;;;;;;0.70;0.35;;;20.10;99.90;;;;;;5042313;28;20067;-53
2023/07/21 08:51:07;;;;;;;0.50;0.30;;;20.20;99.70;;;;;;5044873;28;20095;-50
2023/07/21 08:53:32;;;;;;;;;;;20.20;99.60;;;;;;5039510;28;20034;-48
2023/07/21 08:56:00;;;;;;;1.52;0.47;;;20.40;99.20;;;;;;5035760;28;20007;-50
2023/07/21 08:58:27;;;;;;;3.22;0.57;;;20.40;99.20;;;;;;5036417;28;20053;-51
2023/07/21 09:00:53;;;;;;;0.60;0.28;;;20.50;99.10;;;;;;5043816;28;20329;-51
2023/07/21 09:03:24;;;;;;;1.52;0.30;;;20.50;99.20;;;;;;5036985;28;20451;-50
2023/07/21 09:05:55;;;;;;;1.02;0.30;;;20.60;98.60;;;;;;5036280;28;20041;-49
2023/07/21 09:08:23;;;;;;;0.80;0.35;;;20.70;98.50;;;;;;5036491;28;20045;-52
2023/07/21 09:10:49;;;;;;;3.40;0.40;;;20.70;98.70;;;;;;5036479;28;20046;-52
2023/07/21 09:13:16;;;;;;;;;;;20.70;97.80;;;;;;5038489;28;20512;-50
2023/07/21 09:15:50;;;;;;;0.65;0.20;;;20.80;97.20;;;;;;5034078;28;19920;-51
2023/07/21 09:18:16;;;;;;;1.80;0.30;;;20.80;97.70;;;;;;5037742;28;20426;-50
2023/07/21 09:20:44;;;;;;;;;;;20.90;97.50;;;;;;5041608;28;20039;-54
2023/07/21 09:23:09;;;;;;;0.52;0.30;;;21.10;98.00;;;;;;5035805;28;19917;-55
2023/07/21 09:25:35;;;;;;;;;;;21.10;97.10;;;;;;5041157;28;20033;-57
2023/07/21 09:28:03;;;;;;;0.40;0.20;;;21.10;96.90;;;;;;5039582;28;20290;-54
2023/07/21 09:30:29;;;;;;;0.57;0.20;;;21.10;97.10;;;;;;5039296;28;20038;-57
2023/07/21 09:32:55;;;;;;;;;;;21.20;97.00;;;;;;5037476;28;20039;-55
2023/07/21 09:35:21;;;;;;;0.93;0.38;;;21.40;97.10;;;;;;5034269;28;19944;-57
2023/07/21 09:37:51;;;;;;;;;;;21.60;97.10;;;;;;5040752;28;20072;-57
2023/07/21 09:40:17;;;;;;;0.65;0.30;;;21.60;96.60;;;;;;5037226;28;19917;-56
2023/07/21 09:42:43;;;;;;;0.55;0.30;;;21.60;96.30;;;;;;5045827;28;20051;-56
2023/07/21 09:45:09;;;;;;;2.67;0.40;;;21.60;96.40;;;;;;5038206;28;20033;-57
2023/07/21 09:47:41;;;;;;;0.55;0.40;;;21.70;96.00;;;;;;5040930;28;20045;-55
2023/07/21 09:50:07;;;;;;;1.10;0.47;;;21.70;95.80;;;;;;5031604;28;20259;-54
2023/07/21 09:52:37;;;;;;;;;;;21.80;96.50;;;;;;5031234;28;20040;-56
2023/07/21 09:55:09;;;;;;;0.90;0.30;;;21.80;95.90;;;;;;5036505;28;19982;-56
2023/07/21 09:57:44;;;;;;;7.88;5.25;;;21.90;95.80;;;;;;5027577;28;20081;-56
2023/07/21 10:00:14;;;;;;;1.70;0.40;;;21.70;95.20;;;;;;5036383;28;20044;-57
2023/07/21 10:02:45;;;;;;;1.20;0.60;;;21.60;95.00;;;;;;5034109;28;20032;-56
2023/07/21 10:05:11;;;;;;;6.35;0.88;;;21.50;95.20;;;;;;5034489;28;20033;-58
2023/07/21 10:07:39;;;;;;;1.48;0.30;;;21.40;95.30;;;;;;5027466;28;20053;-55
2023/07/21 10:10:07;;;;;;;0.70;0.20;;;21.50;95.40;;;;;;5029247;28;20049;-55
2023/07/21 10:12:51;;;;;;;0.93;0.30;;;21.50;95.40;;;;;;5030993;28;20670;-55
2023/07/21 10:15:20;;;;;;;2.38;0.47;;;21.70;95.00;;;;;;5031928;28;20034;-52
2023/07/21 10:18:12;;;;;;;3.45;0.57;;;21.80;94.80;;;;;;5030240;28;20029;-56
2023/07/21 10:20:42;;;;;;;0.93;0.30;;;21.70;95.00;;;;;;5034767;28;20722;-55
2023/07/21 10:23:09;;;;;;;4.43;0.50;;;21.80;94.80;;;;;;5031627;28;20433;-58
2023/07/21 10:25:50;;;;;;;0.95;0.57;;;21.70;94.40;;;;;;5033752;28;20037;-56
2023/07/21 10:28:21;;;;;;;2.15;0.57;;;21.60;94.60;;;;;;5030949;28;20098;-57
2023/07/21 10:30:48;;;;;;;2.67;0.35;;;21.60;95.00;;;;;;5034359;28;20518;-56
2023/07/21 10:33:20;;;;;;;5.50;0.32;;;21.60;94.50;;;;;;5032052;28;20486;-55
2023/07/21 10:35:49;;;;;;;1.48;0.50;;;21.50;94.80;;;;;;5036704;28;20041;-57
2023/07/21 10:38:15;;;;;;;1.23;0.28;;;21.60;94.90;;;;;;5033843;28;20037;-54
2023/07/21 10:40:41;;;;;;;;;;;21.60;94.80;;;;;;5035996;28;20069;-56
2023/07/21 10:43:06;;;;;;;0.65;0.20;;;21.70;94.30;;;;;;5036410;28;20366;-55
2023/07/21 10:45:32;;;;;;;;;;;21.70;94.80;;;;;;5040477;28;20037;-55
2023/07/21 10:48:11;;;;;;;0.88;0.30;;;21.90;94.90;;;;;;5036563;28;19928;-54
2023/07/21 10:50:58;;;;;;;0.47;0.30;;;22.10;94.60;;;;;;5036343;28;20044;-55
2023/07/21 10:53:24;;;;;;;0.75;0.30;;;22.10;93.50;;;;;;5035038;28;20038;-57
2023/07/21 10:55:53;;;;;;;;;;;22.10;94.10;;;;;;5041701;28;20098;-57
2023/07/21 10:58:19;;;;;;;1.05;0.32;;;22.10;92.20;;;;;;5035658;28;19917;-53
2023/07/21 11:00:46;;;;;;;0.82;0.40;;;22.10;93.70;;;;;;5040120;28;20041;-55
2023/07/21 11:03:12;;;;;;;1.77;0.30;;;22.10;93.90;;;;;;5035807;28;20090;-55
2023/07/21 11:05:38;;;;;;;;;;;22.10;93.30;;;;;;5038694;28;20032;-56
2023/07/21 11:08:04;;;;;;;2.75;0.70;;;22.10;93.50;;;;;;5041076;28;20484;-52
2023/07/21 11:10:36;;;;;;;2.00;0.52;;;22.00;93.50;;;;;;5038571;28;20041;-54
2023/07/21 11:13:02;;;;;;;2.90;0.40;;;22.00;93.10;;;;;;5044346;28;20125;-54
2023/07/21 11:15:28;;;;;;;;;;;22.00;93.50;;;;;;5040474;28;20112;-53
2023/07/21 11:18:00;;;;;;;4.68;0.45;;;22.00;93.30;;;;;;5040369;28;19925;-54
2023/07/21 11:20:26;;;;;;;4.97;0.70;;;22.00;93.60;;;;;;5037412;28;20042;-56
2023/07/21 11:22:52;;;;;;;;;;;22.00;94.10;;;;;;5041236;28;20525;-56
2023/07/21 11:25:17;;;;;;;2.03;0.30;;;22.00;94.30;;;;;;5039301;28;20021;-55
2023/07/21 11:27:44;;;;;;;2.70;0.40;;;22.00;94.00;;;;;;5040873;28;20041;-56
2023/07/21 11:30:10;;;;;;;2.67;0.50;;;22.00;94.10;;;;;;5039905;28;20444;-53
2023/07/21 11:32:36;;;;;;;4.10;0.50;;;22.10;94.00;;;;;;5038215;28;20037;-57
2023/07/21 11:35:03;;;;;;;;;;;22.10;93.70;;;;;;5040650;28;20042;-55
2023/07/21 11:37:44;;;;;;;0.95;0.50;;;22.00;93.00;;;;;;5039706;28;20359;-56
2023/07/21 11:40:14;;;;;;;2.42;0.38;;;22.00;92.90;;;;;;5036088;28;20440;-55
2023/07/21 11:42:44;;;;;;;1.27;0.77;;;22.00;93.70;;;;;;5042745;28;20036;-55
2023/07/21 11:45:32;;;;;;;1.70;0.45;;;22.10;93.60;;;;;;5053910;28;20068;-57
2023/07/21 11:47:58;;;;;;;3.80;0.52;;;22.10;93.20;;;;;;5040147;28;20045;-57
2023/07/21 11:50:24;;;;;;;;;;;22.20;93.80;;;;;;5038292;28;20572;-56
2023/07/21 11:52:49;;;;;;;1.08;0.30;;;22.20;92.70;;;;;;5038971;28;20399;-53
2023/07/21 11:55:15;;;;;;;;;;;22.20;93.50;;;;;;5042899;28;20116;-56
2023/07/21 11:57:41;;;;;;;0.88;0.25;;;22.30;92.90;;;;;;5041569;28;19970;-56
2023/07/21 12:00:11;;;;;;;;;;;22.30;92.70;;;;;;5047400;28;20041;-57
2023/07/21 12:02:39;;;;;;;4.15;0.60;;;22.30;93.00;;;;;;5038117;28;20374;-56
2023/07/21 12:05:05;;;;;;;2.92;0.60;;;22.20;92.70;;;;;;5041867;28;20518;-54
2023/07/21 12:07:31;;;;;;;;;;;22.20;92.80;;;;;;5038451;28;20044;-57
2023/07/21 12:09:58;;;;;;;0.70;0.50;;;22.00;92.70;;;;;;5039560;28;19931;-53
2023/07/21 12:12:24;;;;;;;2.15;0.40;;;22.00;92.70;;;;;;5038286;28;20406;-53
2023/07/21 12:14:49;;;;;;;;;;;22.00;92.90;;;;;;5038382;28;20030;-57
2023/07/21 12:17:15;;;;;;;2.33;0.50;;;22.00;92.40;;;;;;5042215;28;19917;-56
2023/07/21 12:19:40;;;;;;;0.90;0.50;;;22.10;93.00;;;;;;5035413;28;20136;-54
2023/07/21 12:22:06;;;;;;;1.35;0.57;;;22.10;92.60;;;;;;5040625;28;20389;-56
2023/07/21 12:24:32;;;;;;;1.35;0.60;;;22.20;93.00;;;;;;5036815;28;20126;-56
2023/07/21 12:26:57;;;;;;;1.90;0.52;;;22.30;92.60;;;;;;5038220;28;20531;-54
2023/07/21 12:29:23;;;;;;;;;;;22.30;92.70;;;;;;5036278;28;20566;-55
2023/07/21 12:31:49;;;;;;;0.65;0.30;;;22.30;92.90;;;;;;5040312;28;19920;-56
2023/07/21 12:34:15;;;;;;;;;;;22.50;93.00;;;;;;5039542;28;20485;-56
2023/07/21 12:36:40;;;;;;;0.30;0.13;;;22.50;91.70;;;;;;5043534;28;19924;-56
2023/07/21 12:39:09;;;;;;;;;;;22.60;91.30;;;;;;5039410;28;20037;-54
2023/07/21 12:41:36;;;;;;;2.40;0.40;;;22.70;90.80;;;;;;5038707;28;19917;-56
2023/07/21 12:44:02;;;;;;;2.28;0.30;;;22.80;91.10;;;;;;5037161;28;20051;-53
2023/07/21 12:46:27;;;;;;;;;;;22.90;90.70;;;;;;5040872;28;20116;-53
2023/07/21 12:48:53;;;;;;;1.10;0.30;;;22.90;90.70;;;;;;5043627;28;20435;-57
2023/07/21 12:51:18;;;;;;;0.65;0.20;;;23.00;90.60;;;;;;5039560;28;20029;-55
2023/07/21 12:53:44;;;;;;;1.23;0.20;;;23.00;90.20;;;;;;5060162;28;20119;-56
2023/07/21 12:56:09;;;;;;;;;;;23.00;88.50;;;;;;5041592;28;20071;-55